createdAt,value
2018-09-25T00:00:52.741Z,4.27
2018-09-25T00:03:26.884Z,4.00
2018-09-25T00:06:01.098Z,3.07
2018-09-25T00:08:38.422Z,4.00
2018-09-25T00:11:12.415Z,3.43
2018-09-25T00:13:46.475Z,4.37
2018-09-25T00:16:20.523Z,3.30
2018-09-25T00:18:54.678Z,2.97
2018-09-25T00:21:29.619Z,3.90
2018-09-25T00:24:03.773Z,4.10
2018-09-25T00:26:37.787Z,4.13
2018-09-25T00:29:11.723Z,3.13
2018-09-25T00:31:45.741Z,3.93
2018-09-25T00:34:19.796Z,3.27
2018-09-25T00:36:53.823Z,3.73
2018-09-25T00:39:27.966Z,4.07
2018-09-25T00:42:02.123Z,3.23
2018-09-25T00:44:36.693Z,4.77
2018-09-25T00:47:10.775Z,3.70
2018-09-25T00:49:44.829Z,3.53
2018-09-25T00:52:18.677Z,6.33
2018-09-25T00:54:52.823Z,4.60
2018-09-25T00:57:26.987Z,3.80
2018-09-25T01:00:01.103Z,4.40
2018-09-25T01:02:35.048Z,4.60
2018-09-25T01:05:08.919Z,4.00
2018-09-25T01:07:42.943Z,4.43
2018-09-25T01:10:16.919Z,4.27
2018-09-25T01:12:52.313Z,3.97
2018-09-25T01:15:26.277Z,3.50
2018-09-25T01:18:00.533Z,3.27
2018-09-25T01:20:34.496Z,3.60
2018-09-25T01:23:08.461Z,3.73
2018-09-25T01:25:42.452Z,4.00
2018-09-25T01:28:16.664Z,4.53
2018-09-25T01:30:50.855Z,4.90
2018-09-25T01:33:24.767Z,3.47
2018-09-25T01:35:58.627Z,4.13
2018-09-25T01:38:32.584Z,4.27
2018-09-25T01:41:06.537Z,3.57
2018-09-25T01:43:40.441Z,3.80
2018-09-25T01:46:14.380Z,4.03
2018-09-25T01:48:48.326Z,3.93
2018-09-25T01:51:22.243Z,3.40
2018-09-25T01:53:56.420Z,3.20
2018-09-25T01:56:30.523Z,4.10
2018-09-25T01:59:04.657Z,3.47
2018-09-25T02:01:38.597Z,3.37
2018-09-25T02:04:12.552Z,4.90
2018-09-25T02:06:46.648Z,3.83
2018-09-25T02:09:20.822Z,4.10
2018-09-25T02:11:54.998Z,3.87
2018-09-25T02:14:29.085Z,3.43
2018-09-25T02:17:03.109Z,4.77
2018-09-25T02:19:37.143Z,4.47
2018-09-25T02:22:11.269Z,3.27
2018-09-25T02:24:45.391Z,5.47
2018-09-25T02:27:19.565Z,3.50
2018-09-25T02:29:53.612Z,4.73
2018-09-25T02:32:27.604Z,3.77
2018-09-25T02:35:01.622Z,4.90
2018-09-25T02:37:35.683Z,5.70
2018-09-25T02:40:09.832Z,4.40
2018-09-25T02:42:43.672Z,4.77
2018-09-25T02:45:17.670Z,4.73
2018-09-25T02:47:51.788Z,4.10
2018-09-25T02:50:25.932Z,4.30
2018-09-25T02:52:59.911Z,5.10
2018-09-25T02:55:34.193Z,4.70
2018-09-25T02:58:08.232Z,3.60
2018-09-25T03:00:42.274Z,5.30
2018-09-25T03:03:16.316Z,6.40
2018-09-25T03:05:50.451Z,5.40
2018-09-25T03:08:24.301Z,5.37
2018-09-25T03:10:58.734Z,5.80
2018-09-25T03:13:32.622Z,4.87
2018-09-25T03:16:06.569Z,5.30
2018-09-25T03:18:41.766Z,4.80
2018-09-25T03:21:15.917Z,5.57
2018-09-25T03:23:50.067Z,4.60
2018-09-25T03:26:23.969Z,5.03
2018-09-25T03:28:57.953Z,6.50
2018-09-25T03:31:31.933Z,4.30
2018-09-25T03:34:06.085Z,6.10
2018-09-25T03:36:40.020Z,4.30
2018-09-25T03:39:14.473Z,4.60
2018-09-25T03:41:48.639Z,6.20
2018-09-25T03:44:22.659Z,4.90
2018-09-25T03:46:56.523Z,5.70
2018-09-25T03:49:30.514Z,4.57
2018-09-25T03:52:04.535Z,5.27
2018-09-25T03:54:38.628Z,5.90
2018-09-25T03:57:12.688Z,4.23
2018-09-25T03:59:46.741Z,6.13
2018-09-25T04:02:20.718Z,6.67
2018-09-25T04:04:54.852Z,4.30
2018-09-25T04:07:28.828Z,5.50
2018-09-25T04:10:02.788Z,4.23
2018-09-25T04:12:37.611Z,4.63
2018-09-25T04:15:11.761Z,5.70
2018-09-25T04:17:45.623Z,4.70
2018-09-25T04:20:19.664Z,5.97
2018-09-25T04:22:53.833Z,4.70
2018-09-25T04:25:27.772Z,5.10
2018-09-25T04:28:01.669Z,6.33
2018-09-25T04:30:35.549Z,4.33
2018-09-25T04:33:09.396Z,3.97
2018-09-25T04:35:43.504Z,5.30
2018-09-25T04:38:17.340Z,4.07
2018-09-25T04:40:51.306Z,5.20
2018-09-25T04:43:25.240Z,6.70
2018-09-25T04:45:59.262Z,5.90
2018-09-25T04:48:33.329Z,5.80
2018-09-25T04:51:07.155Z,5.40
2018-09-25T04:53:41.146Z,6.70
2018-09-25T04:56:15.243Z,6.80
2018-09-25T04:58:49.447Z,5.77
2018-09-25T05:01:23.399Z,6.27
2018-09-25T05:03:57.587Z,5.13
2018-09-25T05:06:31.664Z,6.63
2018-09-25T05:09:05.857Z,6.20
2018-09-25T05:11:39.697Z,6.17
2018-09-25T05:14:13.738Z,6.10
2018-09-25T05:16:47.743Z,5.60
2018-09-25T05:19:21.693Z,6.40
2018-09-25T05:21:55.793Z,5.37
2018-09-25T05:24:29.810Z,6.53
2018-09-25T05:27:03.702Z,5.53
2018-09-25T05:29:37.692Z,6.40
2018-09-25T05:32:11.732Z,5.60
2018-09-25T05:34:45.712Z,5.53
2018-09-25T05:37:19.568Z,6.33
2018-09-25T05:39:53.661Z,7.00
2018-09-25T05:42:27.561Z,6.83
2018-09-25T05:45:01.531Z,7.07
2018-09-25T05:47:35.527Z,7.13
2018-09-25T05:50:09.705Z,8.13
2018-09-25T05:52:43.777Z,6.77
2018-09-25T05:55:17.756Z,8.13
2018-09-25T05:57:51.831Z,8.27
2018-09-25T06:00:25.944Z,8.90
2018-09-25T06:02:59.905Z,10.23
2018-09-25T06:05:33.844Z,8.93
2018-09-25T06:08:07.804Z,10.13
2018-09-25T06:10:41.844Z,10.63
2018-09-25T06:13:15.878Z,8.43
2018-09-25T06:15:50.054Z,9.37
2018-09-25T06:18:24.100Z,8.23
2018-09-25T06:20:58.248Z,9.40
2018-09-25T06:23:32.249Z,10.80
2018-09-25T06:26:06.436Z,9.43
2018-09-25T06:28:40.556Z,10.60
2018-09-25T06:31:14.853Z,9.03
2018-09-25T06:33:48.835Z,11.87
2018-09-25T06:36:22.857Z,9.73
2018-09-25T06:38:56.839Z,9.83
2018-09-25T06:41:31.068Z,12.27
2018-09-25T06:44:05.151Z,12.37
2018-09-25T06:46:39.096Z,11.47
2018-09-25T06:49:13.045Z,9.77
2018-09-25T06:51:47.016Z,10.07
2018-09-25T06:54:21.063Z,10.53
2018-09-25T06:56:55.240Z,10.87
2018-09-25T06:59:29.176Z,9.53
2018-09-25T07:02:03.201Z,10.57
2018-09-25T07:04:37.212Z,10.33
2018-09-25T07:07:11.418Z,9.40
2018-09-25T07:09:45.358Z,10.17
2018-09-25T07:12:19.398Z,9.47
2018-09-25T07:14:53.369Z,11.20
2018-09-25T07:17:27.407Z,9.90
2018-09-25T07:20:01.392Z,9.40
2018-09-25T07:22:35.394Z,8.30
2018-09-25T07:25:09.467Z,8.20
2018-09-25T07:27:43.599Z,7.87
2018-09-25T07:30:17.533Z,9.90
2018-09-25T07:32:51.468Z,7.10
2018-09-25T07:35:25.545Z,8.77
2018-09-25T07:37:59.507Z,8.40
2018-09-25T07:40:33.408Z,7.30
2018-09-25T07:43:07.413Z,9.30
2018-09-25T07:45:41.426Z,9.10
2018-09-25T07:48:15.554Z,8.73
2018-09-25T07:50:49.724Z,8.20
2018-09-25T07:53:23.832Z,8.33
2018-09-25T07:55:57.856Z,8.60
2018-09-25T07:58:32.044Z,9.30
2018-09-25T08:01:05.927Z,8.90
2018-09-25T08:03:40.104Z,7.80
2018-09-25T08:06:14.081Z,7.97
2018-09-25T08:08:48.050Z,6.77
2018-09-25T08:11:23.153Z,8.17
2018-09-25T08:13:57.085Z,8.37
2018-09-25T08:16:30.983Z,8.47
2018-09-25T08:19:05.057Z,6.63
2018-09-25T08:21:39.277Z,7.07
2018-09-25T08:24:13.245Z,6.93
2018-09-25T08:26:47.293Z,6.93
2018-09-25T08:29:21.395Z,7.53
2018-09-25T08:31:56.512Z,8.00
2018-09-25T08:34:30.676Z,7.97
2018-09-25T08:37:04.561Z,7.90
2018-09-25T08:39:38.564Z,7.20
2018-09-25T08:42:12.639Z,7.30
2018-09-25T08:44:46.807Z,6.90
2018-09-25T08:47:20.760Z,6.00
2018-09-25T08:49:54.899Z,7.30
2018-09-25T08:52:28.749Z,6.70
2018-09-25T08:55:02.711Z,6.77
2018-09-25T08:57:36.661Z,7.30
2018-09-25T09:00:11.881Z,6.20
2018-09-25T09:02:45.937Z,5.50
2018-09-25T09:05:19.962Z,6.60
2018-09-25T09:07:53.807Z,7.57
2018-09-25T09:10:29.777Z,8.33
2018-09-25T09:13:03.742Z,7.30
2018-09-25T09:15:37.717Z,6.33
2018-09-25T09:18:11.821Z,5.37
2018-09-25T09:20:49.825Z,5.37
2018-09-25T09:23:23.829Z,4.00
2018-09-25T09:25:57.905Z,4.63
2018-09-25T09:28:32.103Z,5.10
2018-09-25T09:31:06.223Z,4.30
2018-09-25T09:33:40.361Z,2.60
2018-09-25T09:36:14.473Z,3.43
2018-09-25T09:38:48.613Z,2.90
2018-09-25T09:41:24.763Z,4.47
2018-09-25T09:43:58.721Z,4.10
2018-09-25T09:46:33.029Z,3.40
2018-09-25T09:49:06.984Z,3.27
2018-09-25T09:51:43.099Z,2.73
2018-09-25T09:54:17.336Z,4.00
2018-09-25T09:56:51.234Z,2.80
2018-09-25T09:59:25.452Z,3.00
2018-09-25T10:02:00.520Z,2.70
2018-09-25T10:04:34.668Z,2.70
2018-09-25T10:07:08.810Z,3.33
2018-09-25T10:09:42.895Z,2.00
2018-09-25T10:12:18.975Z,3.00
2018-09-25T10:14:52.921Z,2.37
2018-09-25T10:17:26.986Z,2.93
2018-09-25T10:20:00.964Z,2.57
2018-09-25T10:22:34.977Z,2.30
2018-09-25T10:25:08.933Z,2.27
2018-09-25T10:27:42.912Z,2.27
2018-09-25T10:30:17.133Z,1.87
2018-09-25T10:32:51.134Z,2.93
2018-09-25T10:35:25.288Z,2.17
2018-09-25T10:37:59.196Z,2.50
2018-09-25T10:40:33.141Z,1.47
2018-09-25T10:43:07.156Z,2.30
2018-09-25T10:45:41.160Z,2.30
2018-09-25T10:48:15.021Z,1.30
2018-09-25T10:50:49.159Z,1.70
2018-09-25T10:53:23.133Z,2.30
2018-09-25T10:55:57.318Z,2.03
2018-09-25T10:58:31.205Z,1.73
2018-09-25T11:01:05.403Z,1.90
2018-09-25T11:03:39.362Z,2.50
2018-09-25T11:06:13.344Z,2.67
2018-09-25T11:08:47.149Z,2.93
2018-09-25T11:11:21.193Z,1.73
2018-09-25T11:13:56.409Z,2.43
2018-09-25T11:16:30.524Z,7.50
2018-09-25T11:19:04.559Z,3.30
2018-09-25T11:21:38.570Z,1.70
2018-09-25T11:24:12.576Z,1.90
2018-09-25T11:26:46.640Z,1.70
2018-09-25T11:29:20.693Z,1.90
2018-09-25T11:31:54.945Z,1.70
2018-09-25T11:34:28.964Z,1.37
2018-09-25T11:37:02.976Z,1.80
2018-09-25T11:39:36.984Z,2.00
2018-09-25T11:42:12.090Z,2.83
2018-09-25T11:44:46.069Z,1.77
2018-09-25T11:47:20.004Z,3.33
2018-09-25T11:49:54.043Z,2.97
2018-09-25T11:52:28.112Z,2.23
2018-09-25T11:55:02.388Z,3.33
2018-09-25T11:57:36.613Z,2.13
2018-09-25T12:00:10.769Z,3.17
2018-09-25T12:02:44.752Z,2.80
2018-09-25T12:05:18.656Z,1.73
2018-09-25T12:07:52.664Z,2.30
2018-09-25T12:10:26.791Z,1.93
2018-09-25T12:13:00.776Z,1.50
2018-09-25T12:15:34.803Z,2.33
2018-09-25T12:18:08.824Z,1.83
2018-09-25T12:20:42.825Z,2.80
2018-09-25T12:23:17.150Z,2.83
2018-09-25T12:25:51.051Z,1.47
2018-09-25T12:28:25.049Z,2.00
2018-09-25T12:30:59.099Z,1.73
2018-09-25T12:33:33.117Z,1.70
2018-09-25T12:36:07.073Z,2.10
2018-09-25T12:38:41.083Z,2.10
2018-09-25T12:41:15.116Z,2.17
2018-09-25T12:43:49.136Z,2.13
2018-09-25T12:46:23.217Z,1.83
2018-09-25T12:48:57.394Z,2.03
2018-09-25T12:51:31.385Z,1.90
2018-09-25T12:54:05.338Z,1.77
2018-09-25T12:56:39.507Z,2.07
2018-09-25T12:59:13.648Z,2.50
2018-09-25T13:01:48.414Z,1.63
2018-09-25T13:04:22.267Z,2.90
2018-09-25T13:06:56.165Z,2.07
2018-09-25T13:09:30.306Z,1.87
2018-09-25T13:12:04.443Z,1.33
2018-09-25T13:14:38.447Z,2.10
2018-09-25T13:17:12.381Z,2.60
2018-09-25T13:19:46.311Z,2.30
2018-09-25T13:22:20.501Z,1.90
2018-09-25T13:24:54.460Z,2.03
2018-09-25T13:27:28.543Z,1.93
2018-09-25T13:30:02.556Z,1.57
2018-09-25T13:32:36.508Z,1.97
2018-09-25T13:35:10.473Z,2.10
2018-09-25T13:37:44.439Z,1.50
2018-09-25T13:40:18.419Z,2.07
2018-09-25T13:42:52.519Z,1.80
2018-09-25T13:45:26.371Z,1.30
2018-09-25T13:48:00.448Z,2.00
2018-09-25T13:50:34.412Z,2.27
2018-09-25T13:53:09.299Z,1.70
2018-09-25T13:55:43.288Z,2.60
2018-09-25T13:58:17.299Z,1.93
2018-09-25T14:00:51.237Z,2.13
2018-09-25T14:03:25.507Z,2.10
2018-09-25T14:05:59.476Z,2.37
2018-09-25T14:08:33.539Z,1.93
2018-09-25T14:11:07.429Z,1.97
2018-09-25T14:13:41.327Z,2.80
2018-09-25T14:16:15.338Z,2.30
2018-09-25T14:18:49.467Z,2.60
2018-09-25T14:21:23.534Z,3.57
2018-09-25T14:23:57.467Z,2.10
2018-09-25T14:26:31.425Z,2.33
2018-09-25T14:29:05.354Z,2.63
2018-09-25T14:31:39.303Z,2.83
2018-09-25T14:34:13.176Z,2.70
2018-09-25T14:36:47.229Z,2.80
2018-09-25T14:39:21.344Z,2.87
2018-09-25T14:41:55.380Z,3.90
2018-09-25T14:44:29.339Z,2.43
2018-09-25T14:47:03.179Z,2.07
2018-09-25T14:49:37.233Z,2.00
2018-09-25T14:52:11.265Z,2.40
2018-09-25T14:54:45.345Z,1.83
2018-09-25T14:57:19.439Z,2.60
2018-09-25T14:59:53.354Z,2.10
2018-09-25T15:02:27.242Z,3.10
2018-09-25T15:05:01.136Z,2.87
2018-09-25T15:07:34.960Z,2.20
2018-09-25T15:10:08.961Z,2.20
2018-09-25T15:12:43.056Z,2.77
2018-09-25T15:15:17.045Z,3.20
2018-09-25T15:17:51.183Z,2.87
2018-09-25T15:20:25.331Z,2.40
2018-09-25T15:22:59.356Z,2.00
2018-09-25T15:25:33.292Z,2.70
2018-09-25T15:28:07.280Z,2.17
2018-09-25T15:30:41.351Z,2.50
2018-09-25T15:33:15.391Z,2.80
2018-09-25T15:35:49.640Z,2.77
2018-09-25T15:38:23.571Z,2.37
2018-09-25T15:40:57.637Z,2.73
2018-09-25T15:43:31.671Z,2.03
2018-09-25T15:46:05.632Z,2.37
2018-09-25T15:48:39.733Z,2.50
2018-09-25T15:51:13.868Z,2.33
2018-09-25T15:53:47.972Z,3.10
2018-09-25T15:56:21.846Z,2.27
2018-09-25T15:58:56.008Z,2.17
2018-09-25T16:01:29.984Z,2.63
2018-09-25T16:04:03.879Z,2.83
2018-09-25T16:06:38.025Z,2.23
2018-09-25T16:09:14.285Z,1.90
2018-09-25T16:11:48.745Z,2.73
2018-09-25T16:14:29.776Z,3.53
2018-09-25T16:17:03.695Z,2.40
2018-09-25T16:19:37.795Z,2.53
2018-09-25T16:22:11.823Z,2.30
2018-09-25T16:24:45.905Z,2.60
2018-09-25T16:27:19.893Z,3.10
2018-09-25T16:29:53.777Z,2.20
2018-09-25T16:32:27.828Z,2.10
2018-09-25T16:35:01.646Z,2.47
2018-09-25T16:37:35.895Z,2.10
2018-09-25T16:40:10.059Z,2.60
2018-09-25T16:42:44.128Z,2.40
2018-09-25T16:45:18.105Z,2.23
2018-09-25T16:47:52.077Z,3.30
2018-09-25T16:50:26.129Z,2.50
2018-09-25T16:53:00.090Z,2.07
2018-09-25T16:55:34.066Z,1.90
2018-09-25T16:58:08.047Z,2.03
2018-09-25T17:00:42.046Z,1.67
2018-09-25T17:03:16.238Z,1.67
2018-09-25T17:05:50.253Z,2.33
2018-09-25T17:08:24.345Z,2.27
2018-09-25T17:10:58.288Z,2.37
2018-09-25T17:13:32.219Z,2.43
2018-09-25T17:16:06.213Z,1.70
2018-09-25T17:18:40.403Z,1.63
2018-09-25T17:21:14.377Z,1.80
2018-09-25T17:23:48.542Z,2.33
2018-09-25T17:26:22.593Z,1.90
2018-09-25T17:28:56.472Z,2.30
2018-09-25T17:31:30.458Z,2.50
2018-09-25T17:34:04.672Z,2.03
2018-09-25T17:36:38.703Z,2.33
2018-09-25T17:39:14.461Z,2.00
2018-09-25T17:41:48.693Z,2.13
2018-09-25T17:44:22.621Z,2.07
2018-09-25T17:46:56.732Z,2.60
2018-09-25T17:49:30.970Z,2.70
2018-09-25T17:52:05.109Z,2.60
2018-09-25T17:54:39.184Z,2.33
2018-09-25T17:57:13.256Z,1.80
2018-09-25T17:59:47.237Z,2.70
2018-09-25T18:02:21.313Z,2.73
2018-09-25T18:04:55.329Z,2.73
2018-09-25T18:07:29.223Z,2.60
2018-09-25T18:10:03.161Z,1.80
2018-09-25T18:12:37.072Z,1.97
2018-09-25T18:15:11.191Z,2.00
2018-09-25T18:17:46.067Z,2.13
2018-09-25T18:20:20.228Z,2.90
2018-09-25T18:22:54.206Z,2.53
2018-09-25T18:25:28.192Z,2.20
2018-09-25T18:28:02.549Z,2.07
2018-09-25T18:30:36.748Z,2.10
2018-09-25T18:33:12.176Z,2.87
2018-09-25T18:35:46.402Z,2.10
2018-09-25T18:38:20.604Z,2.90
2018-09-25T18:40:55.045Z,2.17
2018-09-25T18:43:29.459Z,3.00
2018-09-25T18:46:03.599Z,1.63
2018-09-25T18:48:37.871Z,2.60
2018-09-25T18:51:12.205Z,2.03
2018-09-25T18:53:47.620Z,2.87
2018-09-25T18:56:22.099Z,2.37
2018-09-25T18:58:56.587Z,2.40
2018-09-25T19:01:30.881Z,2.23
2018-09-25T19:04:05.281Z,2.50
2018-09-25T19:06:39.657Z,2.83
2018-09-25T19:09:15.377Z,2.70
2018-09-25T19:11:49.657Z,2.80
2018-09-25T19:14:23.892Z,2.80
2018-09-25T19:16:58.160Z,2.30
2018-09-25T19:19:32.537Z,2.53
2018-09-25T19:22:06.783Z,2.43
2018-09-25T19:24:41.097Z,2.73
2018-09-25T19:27:15.276Z,2.40
2018-09-25T19:29:49.724Z,2.70
2018-09-25T19:32:24.193Z,3.30
2018-09-25T19:34:58.417Z,3.70
2018-09-25T19:37:32.940Z,4.10
2018-09-25T19:40:07.357Z,3.97
2018-09-25T19:42:41.579Z,3.73
2018-09-25T19:45:15.825Z,3.73
2018-09-25T19:47:50.244Z,4.60
2018-09-25T19:50:24.437Z,4.73
2018-09-25T19:52:58.813Z,4.50
2018-09-25T19:55:34.161Z,4.90
2018-09-25T19:58:08.548Z,4.73
2018-09-25T20:00:43.037Z,4.63
2018-09-25T20:03:17.440Z,4.00
2018-09-25T20:05:51.595Z,5.30
2018-09-25T20:08:25.980Z,5.47
2018-09-25T20:11:00.385Z,5.40
2018-09-25T20:13:34.761Z,6.13
2018-09-25T20:16:09.080Z,5.03
2018-09-25T20:18:43.416Z,6.53
2018-09-25T20:21:17.577Z,6.53
2018-09-25T20:23:51.733Z,7.10
2018-09-25T20:26:26.083Z,6.87
2018-09-25T20:29:00.409Z,6.80
2018-09-25T20:31:34.680Z,8.27
2018-09-25T20:34:08.943Z,9.23
2018-09-25T20:36:43.315Z,8.60
2018-09-25T20:39:17.585Z,9.30
2018-09-25T20:41:51.879Z,9.40
2018-09-25T20:44:26.075Z,9.20
2018-09-25T20:47:00.215Z,8.13
2018-09-25T20:49:34.408Z,6.70
2018-09-25T20:52:08.613Z,9.23
2018-09-25T20:54:42.517Z,8.73
2018-09-25T20:57:16.525Z,10.80
2018-09-25T20:59:50.439Z,9.87
2018-09-25T21:02:24.553Z,8.83
2018-09-25T21:04:58.553Z,9.60
2018-09-25T21:07:32.580Z,9.50
2018-09-25T21:10:06.614Z,11.17
2018-09-25T21:12:40.533Z,8.50
2018-09-25T21:15:14.628Z,8.87
2018-09-25T21:17:48.517Z,10.60
2018-09-25T21:20:22.561Z,10.70
2018-09-25T21:22:56.568Z,9.80
2018-09-25T21:25:30.579Z,11.80
2018-09-25T21:28:04.561Z,9.33
2018-09-25T21:30:38.642Z,9.83
2018-09-25T21:33:12.552Z,11.53
2018-09-25T21:35:46.405Z,9.87
2018-09-25T21:38:20.577Z,11.27
2018-09-25T21:40:54.462Z,11.00
2018-09-25T21:43:28.447Z,11.27
2018-09-25T21:46:02.393Z,13.20
2018-09-25T21:48:36.485Z,11.67
2018-09-25T21:51:10.543Z,11.07
2018-09-25T21:53:44.536Z,11.70
2018-09-25T21:56:18.435Z,11.83
2018-09-25T21:58:52.457Z,10.77
2018-09-25T22:01:26.504Z,11.43
2018-09-25T22:04:00.560Z,10.57
2018-09-25T22:06:34.519Z,10.60
2018-09-25T22:09:08.671Z,10.77
2018-09-25T22:11:42.681Z,11.50
2018-09-25T22:14:16.811Z,12.43
2018-09-25T22:16:50.928Z,12.50
2018-09-25T22:19:24.862Z,12.10
2018-09-25T22:21:58.946Z,10.70
2018-09-25T22:24:32.861Z,11.63
2018-09-25T22:27:06.861Z,11.47
2018-09-25T22:29:40.896Z,11.70
2018-09-25T22:32:14.786Z,14.20
2018-09-25T22:34:48.812Z,11.50
2018-09-25T22:37:22.806Z,11.87
2018-09-25T22:39:56.759Z,13.20
2018-09-25T22:42:30.701Z,11.20
2018-09-25T22:45:04.704Z,12.60
2018-09-25T22:47:38.789Z,11.37
2018-09-25T22:50:12.908Z,14.80
2018-09-25T22:52:47.035Z,12.63
2018-09-25T22:55:20.952Z,13.10
2018-09-25T22:57:54.944Z,13.70
2018-09-25T23:00:29.088Z,13.27
2018-09-25T23:03:03.230Z,12.60
2018-09-25T23:05:37.275Z,13.13
2018-09-25T23:08:11.161Z,13.23
2018-09-25T23:10:45.294Z,14.37
2018-09-25T23:13:19.365Z,12.77
2018-09-25T23:15:53.305Z,12.90
2018-09-25T23:18:27.417Z,11.60
2018-09-25T23:21:01.346Z,10.10
2018-09-25T23:23:35.221Z,12.80
2018-09-25T23:26:09.134Z,12.47
2018-09-25T23:28:43.041Z,13.50
2018-09-25T23:31:16.961Z,12.13
2018-09-25T23:33:50.884Z,13.83
2018-09-25T23:36:25.005Z,14.30
2018-09-25T23:38:58.834Z,13.90
2018-09-25T23:41:37.779Z,13.47
2018-09-25T23:44:11.802Z,13.87
2018-09-25T23:46:44.879Z,12.60
2018-09-25T23:49:20.024Z,14.50
2018-09-25T23:51:52.153Z,14.23
2018-09-25T23:54:31.682Z,15.97
2018-09-25T23:57:06.329Z,16.37
2018-09-25T23:59:56.133Z,15.83
